sensor_id;sensor_type;location;lat;lon;timestamp;temperature;humidity
21487;DHT22;10905;50.822;4.336;2023-01-20T00:00:22;3.20;99.90
21487;DHT22;10905;50.822;4.336;2023-01-20T00:02:48;3.10;99.90
21487;DHT22;10905;50.822;4.336;2023-01-20T00:05:13;3.20;99.90
21487;DHT22;10905;50.822;4.336;2023-01-20T00:07:39;3.10;99.90
21487;DHT22;10905;50.822;4.336;2023-01-20T00:10:05;3.20;99.90
21487;DHT22;10905;50.822;4.336;2023-01-20T00:12:31;3.20;99.90
21487;DHT22;10905;50.822;4.336;2023-01-20T00:14:57;3.10;99.90
21487;DHT22;10905;50.822;4.336;2023-01-20T00:17:22;3.00;99.90
21487;DHT22;10905;50.822;4.336;2023-01-20T00:19:48;3.00;99.90
21487;DHT22;10905;50.822;4.336;2023-01-20T00:22:14;3.10;99.90
21487;DHT22;10905;50.822;4.336;2023-01-20T00:24:39;3.00;99.90
21487;DHT22;10905;50.822;4.336;2023-01-20T00:27:05;3.10;99.90
21487;DHT22;10905;50.822;4.336;2023-01-20T00:29:32;3.10;99.90
21487;DHT22;10905;50.822;4.336;2023-01-20T00:31:57;3.00;99.90
21487;DHT22;10905;50.822;4.336;2023-01-20T00:34:23;3.00;99.90
21487;DHT22;10905;50.822;4.336;2023-01-20T00:36:48;3.00;99.90
21487;DHT22;10905;50.822;4.336;2023-01-20T00:39:14;3.00;99.90
21487;DHT22;10905;50.822;4.336;2023-01-20T00:41:40;2.90;99.90
21487;DHT22;10905;50.822;4.336;2023-01-20T00:44:05;2.90;99.90
21487;DHT22;10905;50.822;4.336;2023-01-20T00:46:31;2.90;99.90
21487;DHT22;10905;50.822;4.336;2023-01-20T00:48:57;2.90;99.90
21487;DHT22;10905;50.822;4.336;2023-01-20T00:51:22;2.80;99.90
21487;DHT22;10905;50.822;4.336;2023-01-20T00:53:48;2.80;99.90
21487;DHT22;10905;50.822;4.336;2023-01-20T00:56:14;2.80;99.90
21487;DHT22;10905;50.822;4.336;2023-01-20T00:58:42;2.80;99.90
21487;DHT22;10905;50.822;4.336;2023-01-20T01:01:08;2.90;99.90
21487;DHT22;10905;50.822;4.336;2023-01-20T01:03:34;3.00;99.90
21487;DHT22;10905;50.822;4.336;2023-01-20T01:06:11;2.90;99.90
21487;DHT22;10905;50.822;4.336;2023-01-20T01:08:37;3.00;99.90
21487;DHT22;10905;50.822;4.336;2023-01-20T01:11:03;3.00;99.90
21487;DHT22;10905;50.822;4.336;2023-01-20T01:13:29;3.00;99.90
21487;DHT22;10905;50.822;4.336;2023-01-20T01:15:55;3.00;99.90
21487;DHT22;10905;50.822;4.336;2023-01-20T01:18:21;2.90;99.90
21487;DHT22;10905;50.822;4.336;2023-01-20T01:20:47;2.80;99.90
21487;DHT22;10905;50.822;4.336;2023-01-20T01:23:12;2.90;99.90
21487;DHT22;10905;50.822;4.336;2023-01-20T01:25:38;2.80;99.90
21487;DHT22;10905;50.822;4.336;2023-01-20T01:28:04;2.80;99.90
21487;DHT22;10905;50.822;4.336;2023-01-20T01:30:29;2.90;99.90
21487;DHT22;10905;50.822;4.336;2023-01-20T01:32:55;2.80;99.90
21487;DHT22;10905;50.822;4.336;2023-01-20T01:35:20;2.70;99.90
21487;DHT22;10905;50.822;4.336;2023-01-20T01:37:46;2.80;99.90
21487;DHT22;10905;50.822;4.336;2023-01-20T01:40:12;2.70;99.90
21487;DHT22;10905;50.822;4.336;2023-01-20T01:42:37;2.70;99.90
21487;DHT22;10905;50.822;4.336;2023-01-20T01:47:39;2.70;99.90
21487;DHT22;10905;50.822;4.336;2023-01-20T01:50:08;2.80;99.90
21487;DHT22;10905;50.822;4.336;2023-01-20T01:52:34;2.80;99.90
21487;DHT22;10905;50.822;4.336;2023-01-20T01:55:01;2.80;99.90
21487;DHT22;10905;50.822;4.336;2023-01-20T01:57:29;2.80;99.90
21487;DHT22;10905;50.822;4.336;2023-01-20T01:59:55;2.80;99.90
21487;DHT22;10905;50.822;4.336;2023-01-20T02:02:21;2.90;99.90
21487;DHT22;10905;50.822;4.336;2023-01-20T02:04:47;2.80;99.90
21487;DHT22;10905;50.822;4.336;2023-01-20T02:07:15;2.80;99.90
21487;DHT22;10905;50.822;4.336;2023-01-20T02:09:42;2.70;99.90
21487;DHT22;10905;50.822;4.336;2023-01-20T02:12:10;2.70;99.90
21487;DHT22;10905;50.822;4.336;2023-01-20T02:14:40;2.80;99.90
21487;DHT22;10905;50.822;4.336;2023-01-20T02:22:56;2.90;99.90
21487;DHT22;10905;50.822;4.336;2023-01-20T02:25:41;2.90;99.90
21487;DHT22;10905;50.822;4.336;2023-01-20T02:31:49;2.80;99.90
21487;DHT22;10905;50.822;4.336;2023-01-20T02:34:28;2.70;99.90
21487;DHT22;10905;50.822;4.336;2023-01-20T02:36:56;2.80;99.90
21487;DHT22;10905;50.822;4.336;2023-01-20T02:42:08;2.70;99.90
21487;DHT22;10905;50.822;4.336;2023-01-20T02:44:43;2.70;99.90
21487;DHT22;10905;50.822;4.336;2023-01-20T02:49:52;2.70;99.90
21487;DHT22;10905;50.822;4.336;2023-01-20T02:52:26;2.70;99.90
21487;DHT22;10905;50.822;4.336;2023-01-20T02:54:56;2.80;99.90
21487;DHT22;10905;50.822;4.336;2023-01-20T02:57:32;2.80;99.90
21487;DHT22;10905;50.822;4.336;2023-01-20T03:00:04;2.70;99.90
21487;DHT22;10905;50.822;4.336;2023-01-20T03:02:32;2.70;99.90
21487;DHT22;10905;50.822;4.336;2023-01-20T03:05:07;2.70;99.90
21487;DHT22;10905;50.822;4.336;2023-01-20T03:07:36;2.60;99.90
21487;DHT22;10905;50.822;4.336;2023-01-20T03:10:07;2.70;99.90
21487;DHT22;10905;50.822;4.336;2023-01-20T03:12:49;2.70;99.90
21487;DHT22;10905;50.822;4.336;2023-01-20T03:15:22;2.60;99.90
21487;DHT22;10905;50.822;4.336;2023-01-20T03:17:49;2.60;99.90
21487;DHT22;10905;50.822;4.336;2023-01-20T03:20:15;2.70;99.90
21487;DHT22;10905;50.822;4.336;2023-01-20T03:22:41;2.70;99.90
21487;DHT22;10905;50.822;4.336;2023-01-20T03:25:22;2.70;99.90
21487;DHT22;10905;50.822;4.336;2023-01-20T03:27:48;2.70;99.90
21487;DHT22;10905;50.822;4.336;2023-01-20T03:30:15;2.70;99.90
21487;DHT22;10905;50.822;4.336;2023-01-20T03:32:47;2.70;99.90
21487;DHT22;10905;50.822;4.336;2023-01-20T03:35:14;2.70;99.90
21487;DHT22;10905;50.822;4.336;2023-01-20T03:37:42;2.60;99.90
21487;DHT22;10905;50.822;4.336;2023-01-20T03:40:08;2.50;99.90
21487;DHT22;10905;50.822;4.336;2023-01-20T03:42:43;2.50;99.90
21487;DHT22;10905;50.822;4.336;2023-01-20T03:45:23;2.60;99.90
21487;DHT22;10905;50.822;4.336;2023-01-20T03:48:10;2.70;99.90
21487;DHT22;10905;50.822;4.336;2023-01-20T03:51:04;2.50;99.90
21487;DHT22;10905;50.822;4.336;2023-01-20T03:56:18;2.70;99.90
21487;DHT22;10905;50.822;4.336;2023-01-20T03:58:49;2.60;99.90
21487;DHT22;10905;50.822;4.336;2023-01-20T04:01:18;2.60;99.90
21487;DHT22;10905;50.822;4.336;2023-01-20T04:03:46;2.50;99.90
21487;DHT22;10905;50.822;4.336;2023-01-20T04:06:15;2.60;99.90
21487;DHT22;10905;50.822;4.336;2023-01-20T04:08:55;2.60;99.90
21487;DHT22;10905;50.822;4.336;2023-01-20T04:11:23;2.60;99.90
21487;DHT22;10905;50.822;4.336;2023-01-20T04:13:49;2.70;99.90
21487;DHT22;10905;50.822;4.336;2023-01-20T04:16:16;2.70;99.90
21487;DHT22;10905;50.822;4.336;2023-01-20T04:18:45;2.60;99.90
21487;DHT22;10905;50.822;4.336;2023-01-20T04:21:21;2.50;99.90
21487;DHT22;10905;50.822;4.336;2023-01-20T04:26:19;2.70;99.90
21487;DHT22;10905;50.822;4.336;2023-01-20T04:28:45;2.70;99.90
21487;DHT22;10905;50.822;4.336;2023-01-20T04:31:11;2.60;99.90
21487;DHT22;10905;50.822;4.336;2023-01-20T04:33:37;2.60;99.90
21487;DHT22;10905;50.822;4.336;2023-01-20T04:36:03;2.60;99.90
21487;DHT22;10905;50.822;4.336;2023-01-20T04:38:29;2.60;99.90
21487;DHT22;10905;50.822;4.336;2023-01-20T04:40:54;2.50;99.90
21487;DHT22;10905;50.822;4.336;2023-01-20T04:43:20;2.50;99.90
21487;DHT22;10905;50.822;4.336;2023-01-20T04:45:46;2.40;99.90
21487;DHT22;10905;50.822;4.336;2023-01-20T04:48:11;2.50;99.90
21487;DHT22;10905;50.822;4.336;2023-01-20T04:50:38;2.50;99.90
21487;DHT22;10905;50.822;4.336;2023-01-20T04:53:04;2.50;99.90
21487;DHT22;10905;50.822;4.336;2023-01-20T04:55:31;2.60;99.90
21487;DHT22;10905;50.822;4.336;2023-01-20T04:57:57;2.70;99.90
21487;DHT22;10905;50.822;4.336;2023-01-20T05:00:23;2.70;99.90
21487;DHT22;10905;50.822;4.336;2023-01-20T05:02:48;2.70;99.90
21487;DHT22;10905;50.822;4.336;2023-01-20T05:05:14;2.60;99.90
21487;DHT22;10905;50.822;4.336;2023-01-20T05:07:40;2.60;99.90
21487;DHT22;10905;50.822;4.336;2023-01-20T05:10:06;2.60;99.90
21487;DHT22;10905;50.822;4.336;2023-01-20T05:12:32;2.60;99.90
21487;DHT22;10905;50.822;4.336;2023-01-20T05:14:58;2.60;99.90
21487;DHT22;10905;50.822;4.336;2023-01-20T05:17:23;2.60;99.90
21487;DHT22;10905;50.822;4.336;2023-01-20T05:19:49;2.70;99.90
21487;DHT22;10905;50.822;4.336;2023-01-20T05:22:14;2.80;99.90
21487;DHT22;10905;50.822;4.336;2023-01-20T05:24:40;2.70;99.90
21487;DHT22;10905;50.822;4.336;2023-01-20T05:27:06;2.70;99.90
21487;DHT22;10905;50.822;4.336;2023-01-20T05:29:31;2.70;99.90
21487;DHT22;10905;50.822;4.336;2023-01-20T05:31:57;2.70;99.90
21487;DHT22;10905;50.822;4.336;2023-01-20T05:34:22;2.80;99.90
21487;DHT22;10905;50.822;4.336;2023-01-20T05:36:52;2.80;99.90
21487;DHT22;10905;50.822;4.336;2023-01-20T05:39:18;2.80;99.90
21487;DHT22;10905;50.822;4.336;2023-01-20T05:41:44;2.70;99.90
21487;DHT22;10905;50.822;4.336;2023-01-20T05:44:11;2.70;99.90
21487;DHT22;10905;50.822;4.336;2023-01-20T05:46:37;2.70;99.90
21487;DHT22;10905;50.822;4.336;2023-01-20T05:49:02;2.70;99.90
21487;DHT22;10905;50.822;4.336;2023-01-20T05:51:28;2.60;99.90
21487;DHT22;10905;50.822;4.336;2023-01-20T05:53:54;2.60;99.90
21487;DHT22;10905;50.822;4.336;2023-01-20T05:56:19;2.60;99.90
21487;DHT22;10905;50.822;4.336;2023-01-20T05:58:45;2.80;99.90
21487;DHT22;10905;50.822;4.336;2023-01-20T06:01:12;2.70;99.90
21487;DHT22;10905;50.822;4.336;2023-01-20T06:03:38;2.60;99.90
21487;DHT22;10905;50.822;4.336;2023-01-20T06:06:07;2.50;99.90
21487;DHT22;10905;50.822;4.336;2023-01-20T06:08:33;2.50;99.90
21487;DHT22;10905;50.822;4.336;2023-01-20T06:10:59;2.60;99.90
21487;DHT22;10905;50.822;4.336;2023-01-20T06:13:24;2.60;99.90
21487;DHT22;10905;50.822;4.336;2023-01-20T06:15:52;2.60;99.90
21487;DHT22;10905;50.822;4.336;2023-01-20T06:18:21;2.60;99.90
21487;DHT22;10905;50.822;4.336;2023-01-20T06:20:47;2.60;99.90
21487;DHT22;10905;50.822;4.336;2023-01-20T06:23:13;2.60;99.90
21487;DHT22;10905;50.822;4.336;2023-01-20T06:25:39;2.50;99.90
21487;DHT22;10905;50.822;4.336;2023-01-20T06:28:06;2.50;99.90
21487;DHT22;10905;50.822;4.336;2023-01-20T06:30:32;2.70;99.90
21487;DHT22;10905;50.822;4.336;2023-01-20T06:32:58;2.60;99.90
21487;DHT22;10905;50.822;4.336;2023-01-20T06:35:24;2.60;99.90
21487;DHT22;10905;50.822;4.336;2023-01-20T06:37:50;2.60;99.90
21487;DHT22;10905;50.822;4.336;2023-01-20T06:40:16;2.60;99.90
21487;DHT22;10905;50.822;4.336;2023-01-20T06:42:42;2.60;99.90
21487;DHT22;10905;50.822;4.336;2023-01-20T06:45:08;2.60;99.90
21487;DHT22;10905;50.822;4.336;2023-01-20T06:47:34;2.50;99.90
21487;DHT22;10905;50.822;4.336;2023-01-20T06:50:00;2.50;99.90
21487;DHT22;10905;50.822;4.336;2023-01-20T06:52:25;2.50;99.90
21487;DHT22;10905;50.822;4.336;2023-01-20T06:54:51;2.50;99.90
21487;DHT22;10905;50.822;4.336;2023-01-20T06:57:16;2.50;99.90
21487;DHT22;10905;50.822;4.336;2023-01-20T06:59:42;2.50;99.90
21487;DHT22;10905;50.822;4.336;2023-01-20T07:02:12;2.60;99.90
21487;DHT22;10905;50.822;4.336;2023-01-20T07:04:37;2.60;99.90
21487;DHT22;10905;50.822;4.336;2023-01-20T07:07:03;2.70;99.90
21487;DHT22;10905;50.822;4.336;2023-01-20T07:09:29;2.60;99.90
21487;DHT22;10905;50.822;4.336;2023-01-20T07:11:54;2.70;99.90
21487;DHT22;10905;50.822;4.336;2023-01-20T07:14:20;2.80;99.90
21487;DHT22;10905;50.822;4.336;2023-01-20T07:16:46;2.70;99.90
21487;DHT22;10905;50.822;4.336;2023-01-20T07:19:12;2.70;99.90
21487;DHT22;10905;50.822;4.336;2023-01-20T07:21:38;2.70;99.90
21487;DHT22;10905;50.822;4.336;2023-01-20T07:24:04;2.70;99.90
21487;DHT22;10905;50.822;4.336;2023-01-20T07:26:30;2.70;99.90
21487;DHT22;10905;50.822;4.336;2023-01-20T07:28:59;2.70;99.90
21487;DHT22;10905;50.822;4.336;2023-01-20T07:31:27;2.70;99.90
21487;DHT22;10905;50.822;4.336;2023-01-20T07:33:56;2.80;99.90
21487;DHT22;10905;50.822;4.336;2023-01-20T07:36:22;2.80;99.90
21487;DHT22;10905;50.822;4.336;2023-01-20T07:38:52;2.70;99.90
21487;DHT22;10905;50.822;4.336;2023-01-20T07:41:18;2.70;99.90
21487;DHT22;10905;50.822;4.336;2023-01-20T07:43:45;2.70;99.90
21487;DHT22;10905;50.822;4.336;2023-01-20T07:46:12;2.70;99.90
21487;DHT22;10905;50.822;4.336;2023-01-20T07:48:38;2.80;99.90
21487;DHT22;10905;50.822;4.336;2023-01-20T07:51:07;2.80;99.90
21487;DHT22;10905;50.822;4.336;2023-01-20T07:53:34;2.80;99.90
21487;DHT22;10905;50.822;4.336;2023-01-20T07:56:04;2.80;99.90
21487;DHT22;10905;50.822;4.336;2023-01-20T07:58:31;2.70;99.90
21487;DHT22;10905;50.822;4.336;2023-01-20T08:00:57;2.80;99.90
21487;DHT22;10905;50.822;4.336;2023-01-20T08:03:29;2.70;99.90
21487;DHT22;10905;50.822;4.336;2023-01-20T08:05:55;2.80;99.90
21487;DHT22;10905;50.822;4.336;2023-01-20T08:08:21;2.90;99.90
21487;DHT22;10905;50.822;4.336;2023-01-20T08:10:52;3.00;99.90
21487;DHT22;10905;50.822;4.336;2023-01-20T08:13:18;3.00;99.90
21487;DHT22;10905;50.822;4.336;2023-01-20T08:15:43;3.00;99.90
21487;DHT22;10905;50.822;4.336;2023-01-20T08:18:09;3.00;99.90
21487;DHT22;10905;50.822;4.336;2023-01-20T08:20:38;3.00;99.90
21487;DHT22;10905;50.822;4.336;2023-01-20T08:23:04;3.10;99.90
21487;DHT22;10905;50.822;4.336;2023-01-20T08:25:30;3.10;99.90
21487;DHT22;10905;50.822;4.336;2023-01-20T08:27:55;3.00;99.90
21487;DHT22;10905;50.822;4.336;2023-01-20T08:30:21;3.00;99.90
21487;DHT22;10905;50.822;4.336;2023-01-20T08:32:46;2.90;99.90
21487;DHT22;10905;50.822;4.336;2023-01-20T08:35:12;2.90;99.90
21487;DHT22;10905;50.822;4.336;2023-01-20T08:37:38;2.90;99.90
21487;DHT22;10905;50.822;4.336;2023-01-20T08:40:05;2.90;99.90
21487;DHT22;10905;50.822;4.336;2023-01-20T08:42:32;3.00;99.90
21487;DHT22;10905;50.822;4.336;2023-01-20T08:44:58;3.00;99.90
21487;DHT22;10905;50.822;4.336;2023-01-20T08:47:24;3.10;99.90
21487;DHT22;10905;50.822;4.336;2023-01-20T08:49:52;3.10;99.90
21487;DHT22;10905;50.822;4.336;2023-01-20T08:52:18;3.10;99.90
21487;DHT22;10905;50.822;4.336;2023-01-20T08:54:44;3.10;99.90
21487;DHT22;10905;50.822;4.336;2023-01-20T08:57:10;3.20;99.90
21487;DHT22;10905;50.822;4.336;2023-01-20T08:59:35;3.20;99.90
21487;DHT22;10905;50.822;4.336;2023-01-20T09:02:01;3.40;99.90
21487;DHT22;10905;50.822;4.336;2023-01-20T09:04:26;3.40;99.90
21487;DHT22;10905;50.822;4.336;2023-01-20T09:06:52;3.30;99.90
21487;DHT22;10905;50.822;4.336;2023-01-20T09:09:20;3.30;99.90
21487;DHT22;10905;50.822;4.336;2023-01-20T09:11:47;3.30;99.90
21487;DHT22;10905;50.822;4.336;2023-01-20T09:14:21;3.40;99.90
21487;DHT22;10905;50.822;4.336;2023-01-20T09:16:47;3.30;99.90
21487;DHT22;10905;50.822;4.336;2023-01-20T09:19:13;3.30;99.90
21487;DHT22;10905;50.822;4.336;2023-01-20T09:21:38;3.40;99.90
21487;DHT22;10905;50.822;4.336;2023-01-20T09:24:04;3.40;99.90
21487;DHT22;10905;50.822;4.336;2023-01-20T09:26:30;3.50;99.90
21487;DHT22;10905;50.822;4.336;2023-01-20T09:29:13;3.50;99.90
21487;DHT22;10905;50.822;4.336;2023-01-20T09:31:42;3.50;99.90
21487;DHT22;10905;50.822;4.336;2023-01-20T09:34:09;3.60;99.90
21487;DHT22;10905;50.822;4.336;2023-01-20T09:36:35;3.50;99.90
21487;DHT22;10905;50.822;4.336;2023-01-20T09:39:00;3.50;99.90
21487;DHT22;10905;50.822;4.336;2023-01-20T09:41:48;3.50;99.90
21487;DHT22;10905;50.822;4.336;2023-01-20T09:47:30;3.50;99.90
21487;DHT22;10905;50.822;4.336;2023-01-20T09:50:26;3.50;99.90
21487;DHT22;10905;50.822;4.336;2023-01-20T09:56:16;3.70;99.90
21487;DHT22;10905;50.822;4.336;2023-01-20T09:59:07;3.70;99.90
21487;DHT22;10905;50.822;4.336;2023-01-20T10:01:41;3.80;99.90
21487;DHT22;10905;50.822;4.336;2023-01-20T10:04:15;4.00;99.90
21487;DHT22;10905;50.822;4.336;2023-01-20T10:06:47;3.90;99.90
21487;DHT22;10905;50.822;4.336;2023-01-20T10:09:26;3.90;99.90
21487;DHT22;10905;50.822;4.336;2023-01-20T10:12:24;3.90;99.90
21487;DHT22;10905;50.822;4.336;2023-01-20T10:15:19;3.90;99.90
21487;DHT22;10905;50.822;4.336;2023-01-20T10:17:55;4.00;99.90
21487;DHT22;10905;50.822;4.336;2023-01-20T10:26:41;4.10;99.90
21487;DHT22;10905;50.822;4.336;2023-01-20T10:29:17;4.20;99.90
21487;DHT22;10905;50.822;4.336;2023-01-20T10:31:50;4.20;99.90
21487;DHT22;10905;50.822;4.336;2023-01-20T10:34:18;4.30;99.90
21487;DHT22;10905;50.822;4.336;2023-01-20T10:36:53;4.50;99.90
21487;DHT22;10905;50.822;4.336;2023-01-20T10:39:32;4.50;99.90
21487;DHT22;10905;50.822;4.336;2023-01-20T10:42:11;4.50;99.90
21487;DHT22;10905;50.822;4.336;2023-01-20T10:44:38;4.50;99.90
21487;DHT22;10905;50.822;4.336;2023-01-20T10:57:43;4.60;99.90
21487;DHT22;10905;50.822;4.336;2023-01-20T11:00:32;4.80;99.90
21487;DHT22;10905;50.822;4.336;2023-01-20T11:02:59;4.80;99.90
21487;DHT22;10905;50.822;4.336;2023-01-20T11:05:29;4.70;99.90
21487;DHT22;10905;50.822;4.336;2023-01-20T11:07:57;4.80;99.90
21487;DHT22;10905;50.822;4.336;2023-01-20T11:10:27;4.70;99.90
21487;DHT22;10905;50.822;4.336;2023-01-20T11:12:59;4.90;99.90
21487;DHT22;10905;50.822;4.336;2023-01-20T11:15:46;4.80;99.90
21487;DHT22;10905;50.822;4.336;2023-01-20T11:20:50;4.90;99.90
21487;DHT22;10905;50.822;4.336;2023-01-20T11:23:39;4.90;99.90
21487;DHT22;10905;50.822;4.336;2023-01-20T11:26:19;4.90;99.90
21487;DHT22;10905;50.822;4.336;2023-01-20T11:28:55;4.90;99.90
21487;DHT22;10905;50.822;4.336;2023-01-20T11:31:36;5.10;99.90
21487;DHT22;10905;50.822;4.336;2023-01-20T11:34:24;5.20;99.90
21487;DHT22;10905;50.822;4.336;2023-01-20T11:42:22;5.30;99.90
21487;DHT22;10905;50.822;4.336;2023-01-20T11:44:51;5.50;99.90
21487;DHT22;10905;50.822;4.336;2023-01-20T11:47:26;5.60;99.90
21487;DHT22;10905;50.822;4.336;2023-01-20T11:52:38;5.60;99.90
21487;DHT22;10905;50.822;4.336;2023-01-20T11:55:08;5.40;99.90
21487;DHT22;10905;50.822;4.336;2023-01-20T11:57:36;5.40;99.90
21487;DHT22;10905;50.822;4.336;2023-01-20T12:00:03;5.30;99.90
21487;DHT22;10905;50.822;4.336;2023-01-20T12:02:29;5.40;99.90
21487;DHT22;10905;50.822;4.336;2023-01-20T12:07:46;5.40;99.90
21487;DHT22;10905;50.822;4.336;2023-01-20T12:10:16;5.40;99.90
21487;DHT22;10905;50.822;4.336;2023-01-20T12:12:49;5.50;99.90
21487;DHT22;10905;50.822;4.336;2023-01-20T12:15:20;5.60;99.90
21487;DHT22;10905;50.822;4.336;2023-01-20T12:18:05;5.80;99.90
21487;DHT22;10905;50.822;4.336;2023-01-20T12:20:51;5.90;99.90
21487;DHT22;10905;50.822;4.336;2023-01-20T12:25:59;6.10;99.90
21487;DHT22;10905;50.822;4.336;2023-01-20T12:28:44;6.10;99.90
21487;DHT22;10905;50.822;4.336;2023-01-20T12:31:15;6.30;99.90
21487;DHT22;10905;50.822;4.336;2023-01-20T12:33:45;6.20;99.90
21487;DHT22;10905;50.822;4.336;2023-01-20T12:42:06;6.20;99.90
21487;DHT22;10905;50.822;4.336;2023-01-20T12:44:46;6.10;99.90
21487;DHT22;10905;50.822;4.336;2023-01-20T12:47:29;6.10;99.90
21487;DHT22;10905;50.822;4.336;2023-01-20T12:50:15;6.20;99.90
21487;DHT22;10905;50.822;4.336;2023-01-20T12:56:12;6.20;99.90
21487;DHT22;10905;50.822;4.336;2023-01-20T13:10:18;6.60;99.90
21487;DHT22;10905;50.822;4.336;2023-01-20T13:15:38;6.40;99.90
21487;DHT22;10905;50.822;4.336;2023-01-20T13:18:20;6.40;99.90
21487;DHT22;10905;50.822;4.336;2023-01-20T13:20:47;6.60;99.90
21487;DHT22;10905;50.822;4.336;2023-01-20T13:23:23;6.80;99.90
21487;DHT22;10905;50.822;4.336;2023-01-20T13:25:49;6.70;99.90
21487;DHT22;10905;50.822;4.336;2023-01-20T13:28:21;6.80;99.90
21487;DHT22;10905;50.822;4.336;2023-01-20T13:30:49;6.60;99.90
21487;DHT22;10905;50.822;4.336;2023-01-20T13:33:37;6.70;99.90
21487;DHT22;10905;50.822;4.336;2023-01-20T13:38:39;6.80;99.90
21487;DHT22;10905;50.822;4.336;2023-01-20T13:41:05;6.80;99.90
21487;DHT22;10905;50.822;4.336;2023-01-20T13:43:32;6.80;99.90
21487;DHT22;10905;50.822;4.336;2023-01-20T13:48:28;6.80;99.90
21487;DHT22;10905;50.822;4.336;2023-01-20T13:50:54;6.90;99.90
21487;DHT22;10905;50.822;4.336;2023-01-20T13:53:40;6.90;99.90
21487;DHT22;10905;50.822;4.336;2023-01-20T13:56:26;6.80;99.90
21487;DHT22;10905;50.822;4.336;2023-01-20T13:58:53;6.70;99.90
21487;DHT22;10905;50.822;4.336;2023-01-20T14:01:19;6.70;99.90
21487;DHT22;10905;50.822;4.336;2023-01-20T14:04:03;6.50;99.90
21487;DHT22;10905;50.822;4.336;2023-01-20T14:06:30;6.40;99.90
21487;DHT22;10905;50.822;4.336;2023-01-20T14:08:59;6.40;99.90
21487;DHT22;10905;50.822;4.336;2023-01-20T14:11:27;6.30;99.90
21487;DHT22;10905;50.822;4.336;2023-01-20T14:14:01;6.40;99.90
21487;DHT22;10905;50.822;4.336;2023-01-20T14:16:28;6.50;99.90
21487;DHT22;10905;50.822;4.336;2023-01-20T14:21:43;6.50;99.90
21487;DHT22;10905;50.822;4.336;2023-01-20T14:29:41;6.80;99.90
21487;DHT22;10905;50.822;4.336;2023-01-20T14:34:49;6.70;99.90
21487;DHT22;10905;50.822;4.336;2023-01-20T14:37:27;6.60;99.90
21487;DHT22;10905;50.822;4.336;2023-01-20T14:39:54;6.50;99.90
21487;DHT22;10905;50.822;4.336;2023-01-20T14:42:22;6.40;99.90
21487;DHT22;10905;50.822;4.336;2023-01-20T14:44:50;6.30;99.90
21487;DHT22;10905;50.822;4.336;2023-01-20T14:47:17;6.00;99.90
21487;DHT22;10905;50.822;4.336;2023-01-20T14:49:46;5.90;99.90
21487;DHT22;10905;50.822;4.336;2023-01-20T14:52:30;5.80;99.90
21487;DHT22;10905;50.822;4.336;2023-01-20T14:54:56;5.80;99.90
21487;DHT22;10905;50.822;4.336;2023-01-20T14:57:39;5.90;99.90
21487;DHT22;10905;50.822;4.336;2023-01-20T15:02:43;5.90;99.90
21487;DHT22;10905;50.822;4.336;2023-01-20T15:05:20;5.80;99.90
21487;DHT22;10905;50.822;4.336;2023-01-20T15:07:47;5.80;99.90
21487;DHT22;10905;50.822;4.336;2023-01-20T15:10:14;5.70;99.90
21487;DHT22;10905;50.822;4.336;2023-01-20T15:15:38;5.70;99.90
21487;DHT22;10905;50.822;4.336;2023-01-20T15:18:12;5.80;99.90
21487;DHT22;10905;50.822;4.336;2023-01-20T15:20:45;5.70;99.90
21487;DHT22;10905;50.822;4.336;2023-01-20T15:23:29;5.80;99.90
21487;DHT22;10905;50.822;4.336;2023-01-20T15:25:56;5.90;99.90
21487;DHT22;10905;50.822;4.336;2023-01-20T15:28:30;5.90;99.90
21487;DHT22;10905;50.822;4.336;2023-01-20T15:30:57;6.00;99.90
21487;DHT22;10905;50.822;4.336;2023-01-20T15:33:24;5.90;99.90
21487;DHT22;10905;50.822;4.336;2023-01-20T15:35:55;5.90;99.90
21487;DHT22;10905;50.822;4.336;2023-01-20T15:38:21;5.90;99.90
21487;DHT22;10905;50.822;4.336;2023-01-20T15:40:47;6.00;99.90
21487;DHT22;10905;50.822;4.336;2023-01-20T15:43:17;6.10;99.90
21487;DHT22;10905;50.822;4.336;2023-01-20T15:45:43;6.10;99.90
21487;DHT22;10905;50.822;4.336;2023-01-20T15:48:16;6.20;99.90
21487;DHT22;10905;50.822;4.336;2023-01-20T15:50:43;6.10;99.90
21487;DHT22;10905;50.822;4.336;2023-01-20T15:53:09;6.00;99.90
21487;DHT22;10905;50.822;4.336;2023-01-20T15:55:36;5.90;99.90
21487;DHT22;10905;50.822;4.336;2023-01-20T15:58:18;6.00;99.90
21487;DHT22;10905;50.822;4.336;2023-01-20T16:00:45;6.10;99.90
21487;DHT22;10905;50.822;4.336;2023-01-20T16:03:10;6.00;99.90
21487;DHT22;10905;50.822;4.336;2023-01-20T16:05:36;6.00;99.90
21487;DHT22;10905;50.822;4.336;2023-01-20T16:08:09;6.00;99.90
21487;DHT22;10905;50.822;4.336;2023-01-20T16:10:36;5.90;99.90
21487;DHT22;10905;50.822;4.336;2023-01-20T16:13:02;5.80;99.90
21487;DHT22;10905;50.822;4.336;2023-01-20T16:15:27;5.90;99.90
21487;DHT22;10905;50.822;4.336;2023-01-20T16:17:53;6.10;99.90
21487;DHT22;10905;50.822;4.336;2023-01-20T16:20:21;6.10;99.90
21487;DHT22;10905;50.822;4.336;2023-01-20T16:22:47;6.20;99.90
21487;DHT22;10905;50.822;4.336;2023-01-20T16:25:13;6.20;99.90
21487;DHT22;10905;50.822;4.336;2023-01-20T16:27:39;6.20;99.90
21487;DHT22;10905;50.822;4.336;2023-01-20T16:30:05;6.20;99.90
21487;DHT22;10905;50.822;4.336;2023-01-20T16:32:30;6.20;99.90
21487;DHT22;10905;50.822;4.336;2023-01-20T16:34:56;6.20;99.90
21487;DHT22;10905;50.822;4.336;2023-01-20T16:37:22;6.20;99.90
21487;DHT22;10905;50.822;4.336;2023-01-20T16:39:47;6.10;99.90
21487;DHT22;10905;50.822;4.336;2023-01-20T16:42:14;6.00;99.90
21487;DHT22;10905;50.822;4.336;2023-01-20T16:44:40;5.90;99.90
21487;DHT22;10905;50.822;4.336;2023-01-20T16:47:06;5.90;99.90
21487;DHT22;10905;50.822;4.336;2023-01-20T16:49:32;5.90;99.90
21487;DHT22;10905;50.822;4.336;2023-01-20T16:51:58;6.00;99.90
21487;DHT22;10905;50.822;4.336;2023-01-20T16:54:24;5.70;99.90
21487;DHT22;10905;50.822;4.336;2023-01-20T16:56:49;5.40;99.90
21487;DHT22;10905;50.822;4.336;2023-01-20T16:59:15;5.10;99.90
21487;DHT22;10905;50.822;4.336;2023-01-20T17:01:41;5.00;99.90
21487;DHT22;10905;50.822;4.336;2023-01-20T17:04:07;4.90;99.90
21487;DHT22;10905;50.822;4.336;2023-01-20T17:06:35;4.80;99.90
21487;DHT22;10905;50.822;4.336;2023-01-20T17:09:03;4.70;99.90
21487;DHT22;10905;50.822;4.336;2023-01-20T17:11:33;4.60;99.90
21487;DHT22;10905;50.822;4.336;2023-01-20T17:14:01;4.60;99.90
21487;DHT22;10905;50.822;4.336;2023-01-20T17:16:27;4.70;99.90
21487;DHT22;10905;50.822;4.336;2023-01-20T17:18:54;4.80;99.90
21487;DHT22;10905;50.822;4.336;2023-01-20T17:21:22;4.70;99.90
21487;DHT22;10905;50.822;4.336;2023-01-20T17:23:52;4.70;99.90
21487;DHT22;10905;50.822;4.336;2023-01-20T17:26:19;4.70;99.90
21487;DHT22;10905;50.822;4.336;2023-01-20T17:28:44;4.70;99.90
21487;DHT22;10905;50.822;4.336;2023-01-20T17:31:10;4.70;99.90
21487;DHT22;10905;50.822;4.336;2023-01-20T17:33:36;4.70;99.90
21487;DHT22;10905;50.822;4.336;2023-01-20T17:36:04;4.70;99.90
21487;DHT22;10905;50.822;4.336;2023-01-20T17:38:32;4.80;99.90
21487;DHT22;10905;50.822;4.336;2023-01-20T17:41:02;4.90;99.90
21487;DHT22;10905;50.822;4.336;2023-01-20T17:43:35;4.90;99.90